createdAt,value
2022-08-10T00:01:40.580Z,22.70
2022-08-10T00:04:08.556Z,22.64
2022-08-10T00:06:37.001Z,22.54
2022-08-10T00:09:05.153Z,22.51
2022-08-10T00:11:33.111Z,22.50
2022-08-10T00:14:01.011Z,22.48
2022-08-10T00:16:28.891Z,22.48
2022-08-10T00:18:58.184Z,22.46
2022-08-10T00:21:27.224Z,22.42
2022-08-10T00:23:55.353Z,22.42
2022-08-10T00:26:23.256Z,22.38
2022-08-10T00:28:51.138Z,22.42
2022-08-10T00:31:19.041Z,22.43
2022-08-10T00:33:46.940Z,22.41
2022-08-10T00:36:16.249Z,22.45
2022-08-10T00:38:44.178Z,22.44
2022-08-10T00:41:12.109Z,22.46
2022-08-10T00:43:40.020Z,22.46
2022-08-10T00:46:07.972Z,22.46
2022-08-10T00:48:36.065Z,22.47
2022-08-10T00:51:04.018Z,22.43
2022-08-10T00:53:33.340Z,22.38
2022-08-10T00:57:10.092Z,22.30
2022-08-10T00:58:49.353Z,22.20
2022-08-10T01:02:09.338Z,22.17
2022-08-10T01:04:58.110Z,22.11
2022-08-10T01:07:09.754Z,22.08
2022-08-10T01:09:57.209Z,22.04
2022-08-10T01:12:39.280Z,22.07
2022-08-10T01:15:12.333Z,22.06
2022-08-10T01:17:50.145Z,22.05
2022-08-10T01:20:30.330Z,21.98
2022-08-10T01:23:34.224Z,21.98
2022-08-10T01:26:37.288Z,21.95
2022-08-10T01:29:46.715Z,21.91
2022-08-10T01:32:16.189Z,21.91
2022-08-10T01:34:49.740Z,21.57
2022-08-10T01:37:19.649Z,21.84
2022-08-10T01:39:48.569Z,21.80
2022-08-10T01:42:17.978Z,21.74
2022-08-10T01:44:49.281Z,21.75
2022-08-10T01:47:37.032Z,21.64
2022-08-10T01:50:06.943Z,21.65
2022-08-10T01:52:34.979Z,21.62
2022-08-10T01:55:03.082Z,21.61
2022-08-10T01:57:32.450Z,21.61
2022-08-10T02:00:02.075Z,21.59
2022-08-10T02:02:31.883Z,21.59
2022-08-10T02:04:59.829Z,21.57
2022-08-10T02:07:28.476Z,21.44
2022-08-10T02:09:57.673Z,21.55
2022-08-10T02:12:27.713Z,21.53
2022-08-10T02:14:57.061Z,21.52
2022-08-10T02:18:00.668Z,21.53
2022-08-10T02:20:18.173Z,21.52
2022-08-10T02:22:46.677Z,21.50
2022-08-10T02:25:41.191Z,21.48
2022-08-10T02:28:03.721Z,21.45
2022-08-10T02:30:31.596Z,21.41
2022-08-10T02:32:59.681Z,21.31
2022-08-10T02:35:31.498Z,21.32
2022-08-10T02:38:20.643Z,21.25
2022-08-10T02:42:18.068Z,21.21
2022-08-10T02:45:20.714Z,21.19
2022-08-10T02:46:30.926Z,21.15
2022-08-10T02:49:00.964Z,21.04
2022-08-10T02:52:07.291Z,21.13
2022-08-10T02:54:22.767Z,21.13
2022-08-10T02:56:54.692Z,21.10
2022-08-10T02:59:24.975Z,21.06
2022-08-10T03:01:55.398Z,21.03
2022-08-10T03:04:57.040Z,20.98
2022-08-10T03:07:15.892Z,20.94
2022-08-10T03:09:43.797Z,20.96
2022-08-10T03:12:35.559Z,20.90
2022-08-10T03:15:00.270Z,20.97
2022-08-10T03:17:28.246Z,20.97
2022-08-10T03:20:33.398Z,20.97
2022-08-10T03:22:45.506Z,20.96
2022-08-10T03:25:13.493Z,20.93
2022-08-10T03:27:41.574Z,20.92
2022-08-10T03:30:28.234Z,20.96
2022-08-10T03:32:58.701Z,20.93
2022-08-10T03:35:26.614Z,20.90
2022-08-10T03:37:59.156Z,20.87
2022-08-10T03:40:44.652Z,20.84
2022-08-10T03:43:14.982Z,20.87
2022-08-10T03:45:55.454Z,20.83
2022-08-10T03:48:24.305Z,20.77
2022-08-10T03:51:00.374Z,20.74
2022-08-10T03:54:05.813Z,20.72
2022-08-10T03:56:28.333Z,20.72
2022-08-10T03:58:59.295Z,20.70
2022-08-10T04:02:44.075Z,20.70
2022-08-10T04:04:20.589Z,20.70
2022-08-10T04:06:51.572Z,20.71
2022-08-10T04:09:24.838Z,20.71
2022-08-10T04:12:11.644Z,20.67
2022-08-10T04:14:51.072Z,20.65
2022-08-10T04:17:59.445Z,20.59
2022-08-10T04:20:12.938Z,20.58
2022-08-10T04:22:41.028Z,20.58
2022-08-10T04:25:10.630Z,20.55
2022-08-10T04:27:38.579Z,20.53
2022-08-10T04:30:07.680Z,20.51
2022-08-10T04:32:35.726Z,20.52
2022-08-10T04:35:04.421Z,20.50
2022-08-10T04:37:32.393Z,20.43
2022-08-10T04:40:00.338Z,20.50
2022-08-10T04:42:29.601Z,20.40
2022-08-10T04:44:57.538Z,20.49
2022-08-10T04:47:57.875Z,20.45
2022-08-10T04:50:13.393Z,20.41
2022-08-10T04:52:44.281Z,20.38
2022-08-10T04:55:12.177Z,20.36
2022-08-10T04:57:41.588Z,20.33
2022-08-10T05:00:19.009Z,20.30
2022-08-10T05:02:47.693Z,20.30
2022-08-10T05:05:15.585Z,20.29
2022-08-10T05:07:54.004Z,20.30
2022-08-10T05:10:24.887Z,20.29
2022-08-10T05:12:54.332Z,20.30
2022-08-10T05:15:23.829Z,20.30
2022-08-10T05:18:08.454Z,20.33
2022-08-10T05:20:39.136Z,20.34
2022-08-10T05:23:07.447Z,20.36
2022-08-10T05:25:38.030Z,20.38
2022-08-10T05:28:07.627Z,20.39
2022-08-10T05:30:35.585Z,20.12
2022-08-10T05:33:08.110Z,20.43
2022-08-10T05:35:55.418Z,20.45
2022-08-10T05:38:27.312Z,20.46
2022-08-10T05:40:55.221Z,20.47
2022-08-10T05:43:24.509Z,20.51
2022-08-10T05:46:18.543Z,20.53
2022-08-10T05:48:57.116Z,20.58
2022-08-10T05:51:28.042Z,20.57
2022-08-10T05:54:03.207Z,20.74
2022-08-10T05:56:55.754Z,20.82
2022-08-10T06:00:34.552Z,20.92
2022-08-10T06:02:33.531Z,21.01
2022-08-10T06:05:08.062Z,21.17
2022-08-10T06:07:36.921Z,21.34
2022-08-10T06:10:10.202Z,21.49
2022-08-10T06:12:55.021Z,21.64
2022-08-10T06:15:50.536Z,21.76
2022-08-10T06:18:13.732Z,21.87
2022-08-10T06:20:41.637Z,21.92
2022-08-10T06:23:09.532Z,21.94
2022-08-10T06:26:08.366Z,21.91
2022-08-10T06:28:25.899Z,21.92
2022-08-10T06:30:55.322Z,21.94
2022-08-10T06:33:23.936Z,21.94
2022-08-10T06:35:53.106Z,21.92
2022-08-10T06:38:21.088Z,22.13
2022-08-10T06:40:49.095Z,22.17
2022-08-10T06:43:18.401Z,22.22
2022-08-10T06:46:07.488Z,22.24
2022-08-10T06:48:40.446Z,22.34
2022-08-10T06:51:09.315Z,22.41
2022-08-10T06:53:53.805Z,22.47
2022-08-10T06:56:36.765Z,22.60
2022-08-10T06:59:13.421Z,22.56
2022-08-10T07:01:51.717Z,22.73
2022-08-10T07:04:32.678Z,22.79
2022-08-10T07:07:03.423Z,22.89
2022-08-10T07:09:31.409Z,22.96
2022-08-10T07:12:07.914Z,23.05
2022-08-10T07:14:38.516Z,23.18
2022-08-10T07:17:06.843Z,23.27
2022-08-10T07:19:50.321Z,23.33
2022-08-10T07:23:53.841Z,23.44
2022-08-10T07:25:12.432Z,23.54
2022-08-10T07:27:58.723Z,23.61
2022-08-10T07:30:29.312Z,23.72
2022-08-10T07:32:57.262Z,23.74
2022-08-10T07:35:26.906Z,23.89
2022-08-10T07:37:54.836Z,23.93
2022-08-10T07:40:22.954Z,24.08
2022-08-10T07:42:53.921Z,24.16
2022-08-10T07:45:22.040Z,24.22
2022-08-10T07:47:54.888Z,24.29
2022-08-10T07:50:24.415Z,24.38
2022-08-10T07:52:55.172Z,24.45
2022-08-10T07:56:07.606Z,24.47
2022-08-10T07:58:11.345Z,24.66
2022-08-10T08:00:39.306Z,24.74
2022-08-10T08:03:09.358Z,24.85
2022-08-10T08:05:58.464Z,24.95
2022-08-10T08:08:28.750Z,25.06
2022-08-10T08:10:57.320Z,25.13
2022-08-10T08:13:25.278Z,25.28
2022-08-10T08:16:17.681Z,25.38
2022-08-10T08:18:50.940Z,25.50
2022-08-10T08:24:30.564Z,25.54
2022-08-10T08:24:32.852Z,25.70
2022-08-10T08:27:02.549Z,25.80
2022-08-10T08:29:30.573Z,25.91
2022-08-10T08:32:01.931Z,26.00
2022-08-10T08:34:31.070Z,26.09
2022-08-10T08:36:59.935Z,26.11
2022-08-10T08:39:29.879Z,26.32
2022-08-10T08:42:11.686Z,26.46
2022-08-10T08:44:44.296Z,26.58
2022-08-10T08:48:03.987Z,26.74
2022-08-10T08:50:17.690Z,26.94
2022-08-10T08:52:53.646Z,27.11
2022-08-10T08:56:03.497Z,27.25
2022-08-10T08:58:28.040Z,27.40
2022-08-10T09:01:01.702Z,27.39
2022-08-10T09:03:50.992Z,27.62
2022-08-10T09:06:28.563Z,27.73
2022-08-10T09:09:19.733Z,27.85
2022-08-10T09:11:59.610Z,27.95
2022-08-10T09:14:31.781Z,27.98
2022-08-10T09:17:05.071Z,28.16
2022-08-10T09:19:35.482Z,28.26
2022-08-10T09:22:17.585Z,28.37
2022-08-10T09:24:47.844Z,28.47
2022-08-10T09:27:20.474Z,28.53
2022-08-10T09:29:55.084Z,28.58
2022-08-10T09:36:16.061Z,28.79
2022-08-10T09:36:19.792Z,28.92
2022-08-10T09:38:19.440Z,29.07
2022-08-10T09:41:01.056Z,29.17
2022-08-10T09:43:43.386Z,29.39
2022-08-10T09:46:15.439Z,29.47
2022-08-10T09:48:46.969Z,29.65
2022-08-10T09:54:13.690Z,29.88
2022-08-10T09:56:50.981Z,29.99
2022-08-10T09:59:26.998Z,30.12
2022-08-10T10:02:16.985Z,30.22
2022-08-10T10:04:48.753Z,30.41
2022-08-10T10:07:20.798Z,30.53
2022-08-10T10:09:51.700Z,30.68
2022-08-10T10:12:22.823Z,30.73
2022-08-10T10:15:25.348Z,30.85
2022-08-10T10:18:06.350Z,30.97
2022-08-10T10:20:37.201Z,31.00
2022-08-10T10:23:11.707Z,31.08
2022-08-10T10:25:49.840Z,31.14
2022-08-10T10:28:25.731Z,31.29
2022-08-10T10:31:19.952Z,31.41
2022-08-10T10:33:53.013Z,31.53
2022-08-10T10:36:21.030Z,31.63
2022-08-10T10:38:49.001Z,31.73
2022-08-10T10:41:21.744Z,31.81
2022-08-10T10:43:56.914Z,31.88
2022-08-10T10:46:34.658Z,31.94
2022-08-10T10:49:08.776Z,32.00
2022-08-10T10:51:41.887Z,32.08
2022-08-10T10:54:10.590Z,32.15
2022-08-10T10:56:44.574Z,32.20
2022-08-10T10:59:56.043Z,32.30
2022-08-10T11:02:15.903Z,32.40
2022-08-10T11:04:46.710Z,32.50
2022-08-10T11:07:17.610Z,32.59
2022-08-10T11:10:06.056Z,32.69
2022-08-10T11:12:45.073Z,32.80
2022-08-10T11:15:17.884Z,32.91
2022-08-10T11:17:49.886Z,33.02
2022-08-10T11:20:20.536Z,33.03
2022-08-10T11:23:00.712Z,33.21
2022-08-10T11:25:29.990Z,33.35
2022-08-10T11:28:00.561Z,33.56
2022-08-10T11:30:30.918Z,33.43
2022-08-10T11:33:31.098Z,33.23
2022-08-10T11:36:03.205Z,33.41
2022-08-10T11:38:47.119Z,33.80
2022-08-10T11:42:12.276Z,34.32
2022-08-10T11:44:22.642Z,34.75
2022-08-10T11:46:55.057Z,35.27
2022-08-10T11:49:31.002Z,35.72
2022-08-10T11:52:01.805Z,36.10
2022-08-10T11:54:31.635Z,36.42
2022-08-10T11:57:02.426Z,36.77
2022-08-10T11:59:50.489Z,37.01
2022-08-10T12:02:21.165Z,37.15
2022-08-10T12:04:53.056Z,37.30
2022-08-10T12:09:22.587Z,37.53
2022-08-10T12:10:13.518Z,37.74
2022-08-10T12:12:47.014Z,37.89
2022-08-10T12:15:18.325Z,37.81
2022-08-10T12:17:47.401Z,38.20
2022-08-10T12:20:17.905Z,38.29
2022-08-10T12:22:51.689Z,38.45
2022-08-10T12:25:57.182Z,38.52
2022-08-10T12:28:15.166Z,38.55
2022-08-10T12:30:59.911Z,38.72
2022-08-10T12:33:30.353Z,38.70
2022-08-10T12:36:19.305Z,38.79
2022-08-10T12:38:50.744Z,38.86
2022-08-10T12:41:23.852Z,39.07
2022-08-10T12:44:10.028Z,39.18
2022-08-10T12:46:41.009Z,39.28
2022-08-10T12:49:13.047Z,39.34
2022-08-10T12:51:49.676Z,39.43
2022-08-10T12:54:31.839Z,39.46
2022-08-10T12:57:01.491Z,39.57
2022-08-10T12:59:29.771Z,39.73
2022-08-10T13:02:09.902Z,39.92
2022-08-10T13:04:39.211Z,40.23
2022-08-10T13:07:08.509Z,40.40
2022-08-10T13:09:55.908Z,40.54
2022-08-10T13:12:36.231Z,40.78
2022-08-10T13:15:44.571Z,41.02
2022-08-10T13:18:00.983Z,41.20
2022-08-10T13:20:30.051Z,41.35
2022-08-10T13:23:01.672Z,41.45
2022-08-10T13:25:31.003Z,41.61
2022-08-10T13:28:34.763Z,41.78
2022-08-10T13:30:50.703Z,41.96
2022-08-10T13:34:35.877Z,42.10
2022-08-10T13:36:07.888Z,42.38
2022-08-10T13:38:37.271Z,42.54
2022-08-10T13:41:05.244Z,42.73
2022-08-10T13:43:33.337Z,42.83
2022-08-10T13:46:01.275Z,42.97
2022-08-10T13:48:30.655Z,43.14
2022-08-10T13:50:59.353Z,43.21
2022-08-10T13:53:30.600Z,43.17
2022-08-10T13:55:59.988Z,43.23
2022-08-10T13:58:30.204Z,43.33
2022-08-10T14:00:59.016Z,43.53
2022-08-10T14:03:27.143Z,43.60
2022-08-10T14:05:55.818Z,43.63
2022-08-10T14:08:24.957Z,43.68
2022-08-10T14:11:09.384Z,43.83
2022-08-10T14:13:43.491Z,43.99
2022-08-10T14:16:11.640Z,44.06
2022-08-10T14:18:39.797Z,44.22
2022-08-10T14:21:07.770Z,44.38
2022-08-10T14:23:40.830Z,44.44
2022-08-10T14:26:09.842Z,44.42
2022-08-10T14:28:40.369Z,44.40
2022-08-10T14:31:09.809Z,44.49
2022-08-10T14:33:38.070Z,44.49
2022-08-10T14:36:19.452Z,44.46
2022-08-10T14:38:51.602Z,44.51
2022-08-10T14:42:04.223Z,44.47
2022-08-10T14:44:15.163Z,44.35
2022-08-10T14:46:44.811Z,44.28
2022-08-10T14:49:26.115Z,44.40
2022-08-10T14:51:57.861Z,44.47
2022-08-10T14:54:29.500Z,44.48
2022-08-10T14:56:57.713Z,44.53
2022-08-10T15:00:20.765Z,44.49
2022-08-10T15:02:38.409Z,44.46
2022-08-10T15:05:09.109Z,44.49
2022-08-10T15:07:38.097Z,44.52
2022-08-10T15:10:07.480Z,44.76
2022-08-10T15:12:36.793Z,44.93
2022-08-10T15:15:10.703Z,44.91
2022-08-10T15:17:40.561Z,44.84
2022-08-10T15:20:14.716Z,44.80
2022-08-10T15:22:47.046Z,44.73
2022-08-10T15:25:25.174Z,44.90
2022-08-10T15:27:56.495Z,44.85
2022-08-10T15:30:31.023Z,44.89
2022-08-10T15:33:21.217Z,44.75
2022-08-10T15:36:23.765Z,44.83
2022-08-10T15:38:59.326Z,44.85
2022-08-10T15:41:59.539Z,44.96
2022-08-10T15:44:24.632Z,44.97
2022-08-10T15:46:57.709Z,45.13
2022-08-10T15:49:27.445Z,45.18
2022-08-10T15:52:02.021Z,45.27
2022-08-10T15:54:33.781Z,45.36
2022-08-10T15:57:03.777Z,45.38
2022-08-10T15:59:33.151Z,45.33
2022-08-10T16:02:16.042Z,45.28
2022-08-10T16:04:48.764Z,45.30
2022-08-10T16:07:19.512Z,45.50
2022-08-10T16:10:22.602Z,45.72
2022-08-10T16:12:41.582Z,45.89
2022-08-10T16:15:12.953Z,46.11
2022-08-10T16:17:55.678Z,46.25
2022-08-10T16:20:27.774Z,46.17
2022-08-10T16:22:57.875Z,46.16
2022-08-10T16:25:47.819Z,46.06
2022-08-10T16:28:20.264Z,45.95
2022-08-10T16:30:54.516Z,45.72
2022-08-10T16:33:52.446Z,45.69
2022-08-10T16:36:16.947Z,45.86
2022-08-10T16:38:46.118Z,45.95
2022-08-10T16:42:02.016Z,45.77
2022-08-10T16:44:02.224Z,45.71
2022-08-10T16:46:30.145Z,45.77
2022-08-10T16:48:59.824Z,45.83
2022-08-10T16:51:27.818Z,45.87
2022-08-10T16:53:55.746Z,45.89
2022-08-10T16:56:25.148Z,45.91
2022-08-10T16:58:55.125Z,46.05
2022-08-10T17:01:24.481Z,46.04
2022-08-10T17:04:08.041Z,45.71
2022-08-10T17:06:40.345Z,45.47
2022-08-10T17:09:09.175Z,45.40
2022-08-10T17:11:38.701Z,45.33
2022-08-10T17:14:08.861Z,45.43
2022-08-10T17:16:37.715Z,45.48
2022-08-10T17:19:08.300Z,45.54
2022-08-10T17:21:38.671Z,45.47
2022-08-10T17:24:22.165Z,45.31
2022-08-10T17:26:50.069Z,45.04
2022-08-10T17:29:53.262Z,44.84
2022-08-10T17:32:15.415Z,44.32
2022-08-10T17:34:47.741Z,43.17
2022-08-10T17:37:24.500Z,41.82
2022-08-10T17:39:58.253Z,40.59
2022-08-10T17:42:32.676Z,39.49
2022-08-10T17:45:46.272Z,38.33
2022-08-10T17:48:14.944Z,37.55
2022-08-10T17:50:44.793Z,37.05
2022-08-10T17:53:21.503Z,36.63
2022-08-10T17:56:03.148Z,36.08
2022-08-10T17:58:32.058Z,35.79
2022-08-10T18:01:38.420Z,35.55
2022-08-10T18:03:59.449Z,35.27
2022-08-10T18:09:26.478Z,34.86
2022-08-10T18:11:58.659Z,34.57
2022-08-10T18:14:26.657Z,34.57
2022-08-10T18:16:54.773Z,34.45
2022-08-10T18:19:22.687Z,34.34
2022-08-10T18:21:50.625Z,34.26
2022-08-10T18:24:21.089Z,34.15
2022-08-10T18:26:51.116Z,34.00
2022-08-10T18:29:20.070Z,33.90
2022-08-10T18:31:49.019Z,33.85
2022-08-10T18:34:19.173Z,33.77
2022-08-10T18:36:47.771Z,33.69
2022-08-10T18:39:16.319Z,33.58
2022-08-10T18:42:00.364Z,33.43
2022-08-10T18:44:35.012Z,33.36
2022-08-10T18:47:04.882Z,33.27
2022-08-10T18:49:34.200Z,33.16
2022-08-10T18:52:03.486Z,33.08
2022-08-10T18:54:44.970Z,32.97
2022-08-10T18:57:22.403Z,32.86
2022-08-10T19:00:07.344Z,32.79
2022-08-10T19:02:47.544Z,32.72
2022-08-10T19:05:30.541Z,32.55
2022-08-10T19:08:30.699Z,32.30
2022-08-10T19:11:03.665Z,32.03
2022-08-10T19:13:34.876Z,31.89
2022-08-10T19:16:08.499Z,31.77
2022-08-10T19:18:38.983Z,31.66
2022-08-10T19:21:12.613Z,31.55
2022-08-10T19:23:55.711Z,31.41
2022-08-10T19:26:44.645Z,31.26
2022-08-10T19:30:09.589Z,31.06
2022-08-10T19:32:21.654Z,30.87
2022-08-10T19:35:01.482Z,30.75
2022-08-10T19:37:34.848Z,30.61
2022-08-10T19:40:12.557Z,30.51
2022-08-10T19:42:41.610Z,30.41
2022-08-10T19:46:01.420Z,30.19
2022-08-10T19:48:11.893Z,30.06
2022-08-10T19:50:42.681Z,29.84
2022-08-10T19:53:13.460Z,29.70
2022-08-10T19:55:43.645Z,29.56
2022-08-10T19:58:18.055Z,29.58
2022-08-10T20:00:54.826Z,29.54
2022-08-10T20:03:26.300Z,29.48
2022-08-10T20:06:19.066Z,29.45
2022-08-10T20:08:51.697Z,29.38
2022-08-10T20:11:45.917Z,29.23
2022-08-10T20:14:21.964Z,29.26
2022-08-10T20:16:53.479Z,29.21
2022-08-10T20:19:53.459Z,29.16
2022-08-10T20:22:16.109Z,29.06
2022-08-10T20:24:57.077Z,29.07
2022-08-10T20:28:00.435Z,29.01
2022-08-10T20:30:15.617Z,29.02
2022-08-10T20:32:52.144Z,29.01
2022-08-10T20:35:25.039Z,28.93
2022-08-10T20:38:03.688Z,28.83
2022-08-10T20:40:40.462Z,28.80
2022-08-10T20:43:12.629Z,28.77
2022-08-10T20:46:07.045Z,28.74
2022-08-10T20:48:36.732Z,28.62
2022-08-10T20:51:06.732Z,28.53
2022-08-10T20:53:35.484Z,28.43
2022-08-10T20:56:09.301Z,28.28
2022-08-10T20:58:50.868Z,28.31
2022-08-10T21:01:19.493Z,28.22
2022-08-10T21:04:01.592Z,28.14
2022-08-10T21:07:01.881Z,28.01
2022-08-10T21:09:37.438Z,27.92
2022-08-10T21:15:12.617Z,27.74
2022-08-10T21:17:49.911Z,27.60
2022-08-10T21:20:34.031Z,27.55
2022-08-10T21:23:05.149Z,27.53
2022-08-10T21:25:40.220Z,27.45
2022-08-10T21:28:44.870Z,27.40
2022-08-10T21:31:34.185Z,27.27
2022-08-10T21:34:09.753Z,27.30
2022-08-10T21:36:43.618Z,27.26
2022-08-10T21:39:16.096Z,27.22
2022-08-10T21:42:07.697Z,27.16
2022-08-10T21:45:12.085Z,27.09
2022-08-10T21:48:17.196Z,26.96
2022-08-10T21:51:07.048Z,26.91
2022-08-10T21:53:56.821Z,26.84
2022-08-10T21:56:46.195Z,26.78
2022-08-10T21:59:35.320Z,26.69
2022-08-10T22:02:22.701Z,26.58
2022-08-10T22:05:17.860Z,26.44
2022-08-10T22:08:06.853Z,26.33
2022-08-10T22:11:00.896Z,26.25
2022-08-10T22:13:46.319Z,26.17
2022-08-10T22:16:40.986Z,26.10
2022-08-10T22:19:26.442Z,26.06
2022-08-10T22:22:27.027Z,25.98
2022-08-10T22:25:22.390Z,25.92
2022-08-10T22:28:12.389Z,25.97
2022-08-10T22:31:29.945Z,25.96
2022-08-10T22:34:14.033Z,25.95
2022-08-10T22:37:18.967Z,25.92
2022-08-10T22:40:17.211Z,25.87
2022-08-10T22:43:10.548Z,25.82
2022-08-10T22:46:03.359Z,25.80
2022-08-10T22:48:48.440Z,25.75
2022-08-10T22:51:21.928Z,25.74
2022-08-10T22:54:08.564Z,25.71
2022-08-10T22:57:02.226Z,25.67
2022-08-10T22:59:30.922Z,25.60
2022-08-10T23:02:08.991Z,25.58
2022-08-10T23:04:44.710Z,25.52
2022-08-10T23:07:17.412Z,25.41
2022-08-10T23:09:45.997Z,25.43
2022-08-10T23:12:15.310Z,25.36
2022-08-10T23:14:58.933Z,25.33
2022-08-10T23:18:00.848Z,25.30
2022-08-10T23:20:30.232Z,25.14
2022-08-10T23:23:03.622Z,25.18
2022-08-10T23:25:34.180Z,25.09
2022-08-10T23:28:11.475Z,24.74
2022-08-10T23:38:39.334Z,24.77
2022-08-10T23:41:34.993Z,24.75
2022-08-10T23:44:04.830Z,24.73
2022-08-10T23:46:34.178Z,24.70
2022-08-10T23:49:02.505Z,24.66
2022-08-10T23:51:38.905Z,24.69
2022-08-10T23:54:19.364Z,24.66
2022-08-10T23:56:48.644Z,24.62
2022-08-10T23:59:19.125Z,24.56
